createdAt,value
2019-05-07T00:01:03.834Z,82.90
2019-05-07T00:02:10.410Z,82.70
2019-05-07T00:03:13.674Z,83.20
2019-05-07T00:04:16.790Z,84.50
2019-05-07T00:05:19.745Z,84.90
2019-05-07T00:06:23.178Z,85.90
2019-05-07T00:07:26.705Z,83.20
2019-05-07T00:08:32.166Z,81.20
2019-05-07T00:09:35.398Z,83.80
2019-05-07T00:10:38.388Z,84.30
2019-05-07T00:11:42.579Z,83.00
2019-05-07T00:12:45.648Z,82.00
2019-05-07T00:13:52.222Z,84.10
2019-05-07T00:15:01.287Z,84.70
2019-05-07T00:16:02.443Z,83.90
2019-05-07T00:17:05.948Z,82.40
2019-05-07T00:18:09.065Z,81.30
2019-05-07T00:19:13.006Z,81.40
2019-05-07T00:20:16.674Z,81.90
2019-05-07T00:21:19.673Z,84.00
2019-05-07T00:22:22.858Z,84.70
2019-05-07T00:23:26.262Z,80.70
2019-05-07T00:24:29.381Z,83.90
2019-05-07T00:25:33.005Z,81.40
2019-05-07T00:26:36.278Z,84.10
2019-05-07T00:27:39.277Z,83.90
2019-05-07T00:28:43.225Z,83.10
2019-05-07T00:29:46.678Z,81.50
2019-05-07T00:30:51.985Z,80.90
2019-05-07T00:31:54.426Z,81.80
2019-05-07T00:32:57.497Z,82.30
2019-05-07T00:34:02.819Z,81.00
2019-05-07T00:35:07.966Z,81.30
2019-05-07T00:36:32.225Z,82.60
2019-05-07T00:37:43.452Z,83.00
2019-05-07T00:38:49.385Z,82.80
2019-05-07T00:40:31.994Z,84.00
2019-05-07T00:41:42.706Z,84.10
2019-05-07T00:43:03.562Z,84.00
2019-05-07T00:44:06.902Z,81.90
2019-05-07T00:45:21.619Z,83.60
2019-05-07T00:46:27.060Z,82.60
2019-05-07T00:47:29.994Z,84.70
2019-05-07T00:48:33.099Z,85.00
2019-05-07T00:49:36.065Z,82.90
2019-05-07T00:50:41.931Z,82.40
2019-05-07T00:51:44.831Z,79.80
2019-05-07T00:52:47.761Z,79.10
2019-05-07T00:53:52.065Z,81.00
2019-05-07T00:54:55.077Z,82.20
2019-05-07T00:55:58.069Z,83.20
2019-05-07T00:57:02.975Z,83.90
2019-05-07T00:58:05.724Z,82.00
2019-05-07T00:59:08.681Z,81.00
2019-05-07T01:00:13.060Z,80.50
2019-05-07T01:01:16.185Z,81.40
2019-05-07T01:02:22.393Z,81.80
2019-05-07T01:03:25.303Z,80.50
2019-05-07T01:04:28.265Z,82.90
2019-05-07T01:05:32.588Z,82.00
2019-05-07T01:06:35.786Z,80.40
2019-05-07T01:07:38.707Z,81.40
2019-05-07T01:08:43.073Z,77.70
2019-05-07T01:09:46.290Z,80.40
2019-05-07T01:10:49.217Z,81.20
2019-05-07T01:11:52.511Z,79.30
2019-05-07T01:12:55.466Z,80.00
2019-05-07T01:13:58.376Z,81.60
2019-05-07T01:15:02.870Z,81.30
2019-05-07T01:16:06.350Z,82.00
2019-05-07T01:17:09.245Z,81.00
2019-05-07T01:18:12.495Z,82.00
2019-05-07T01:19:15.456Z,82.40
2019-05-07T01:20:18.512Z,82.40
2019-05-07T01:21:22.786Z,80.10
2019-05-07T01:22:25.813Z,80.80
2019-05-07T01:23:28.727Z,79.90
2019-05-07T01:24:32.746Z,79.50
2019-05-07T01:25:35.673Z,81.00
2019-05-07T01:26:38.629Z,82.00
2019-05-07T01:27:42.690Z,81.20
2019-05-07T01:29:02.923Z,79.50
2019-05-07T01:30:06.197Z,78.30
2019-05-07T01:31:09.184Z,81.50
2019-05-07T01:32:24.865Z,82.00
2019-05-07T01:33:35.585Z,82.00
2019-05-07T01:34:46.778Z,80.40
2019-05-07T01:36:08.782Z,82.10
2019-05-07T01:37:12.392Z,82.40
2019-05-07T01:38:17.235Z,81.00
2019-05-07T01:39:20.120Z,79.70
2019-05-07T01:40:23.042Z,82.80
2019-05-07T01:41:25.997Z,83.60
2019-05-07T01:42:28.990Z,81.30
2019-05-07T01:43:32.168Z,82.20
2019-05-07T01:44:35.145Z,79.50
2019-05-07T01:45:48.783Z,81.70
2019-05-07T01:46:49.036Z,79.60
2019-05-07T01:47:53.093Z,79.70
2019-05-07T01:48:57.591Z,80.40
2019-05-07T01:50:02.808Z,79.90
2019-05-07T01:51:05.543Z,79.50
2019-05-07T01:52:08.457Z,78.40
2019-05-07T01:53:12.262Z,78.40
2019-05-07T01:54:15.243Z,80.50
2019-05-07T01:55:18.828Z,81.20
2019-05-07T01:56:22.934Z,79.30
2019-05-07T01:57:26.021Z,78.50
2019-05-07T01:58:28.937Z,80.90
2019-05-07T01:59:32.286Z,81.70
2019-05-07T02:00:35.429Z,78.60
2019-05-07T02:01:38.342Z,76.90
2019-05-07T02:02:52.069Z,80.10
2019-05-07T02:04:12.645Z,78.90
2019-05-07T02:05:42.444Z,79.70
2019-05-07T02:07:04.059Z,78.30
2019-05-07T02:08:09.755Z,78.70
2019-05-07T02:09:47.548Z,81.00
2019-05-07T02:11:02.145Z,80.00
2019-05-07T02:12:16.909Z,82.00
2019-05-07T02:13:21.870Z,82.00
2019-05-07T02:14:24.681Z,78.20
2019-05-07T02:15:27.617Z,80.40
2019-05-07T02:16:32.487Z,80.20
2019-05-07T02:17:35.257Z,79.90
2019-05-07T02:18:38.201Z,80.40
2019-05-07T02:19:42.477Z,79.30
2019-05-07T02:20:45.546Z,77.70
2019-05-07T02:21:48.624Z,77.70
2019-05-07T02:22:53.190Z,78.80
2019-05-07T02:23:56.527Z,81.50
2019-05-07T02:24:59.521Z,79.20
2019-05-07T02:26:03.273Z,78.50
2019-05-07T02:27:06.174Z,77.10
2019-05-07T02:28:09.150Z,76.80
2019-05-07T02:29:12.320Z,77.30
2019-05-07T02:30:15.782Z,79.90
2019-05-07T02:31:18.841Z,77.80
2019-05-07T02:32:24.125Z,76.60
2019-05-07T02:33:26.594Z,77.80
2019-05-07T02:34:30.166Z,78.00
2019-05-07T02:35:33.691Z,76.40
2019-05-07T02:36:37.078Z,75.40
2019-05-07T02:37:51.258Z,75.70
2019-05-07T02:38:54.736Z,75.80
2019-05-07T02:40:08.042Z,76.40
2019-05-07T02:41:17.597Z,78.50
2019-05-07T02:42:23.698Z,76.60
2019-05-07T02:43:25.597Z,78.50
2019-05-07T02:44:28.554Z,77.00
2019-05-07T02:45:39.690Z,75.60
2019-05-07T02:47:07.915Z,75.80
2019-05-07T02:48:12.932Z,77.80
2019-05-07T02:49:53.367Z,80.30
2019-05-07T02:51:03.909Z,81.20
2019-05-07T02:52:23.338Z,76.60
2019-05-07T02:53:33.689Z,75.20
2019-05-07T02:54:54.734Z,76.00
2019-05-07T02:55:58.232Z,76.00
2019-05-07T02:57:03.193Z,77.10
2019-05-07T02:58:06.342Z,76.20
2019-05-07T02:59:09.270Z,76.00
2019-05-07T03:00:14.703Z,74.50
2019-05-07T03:01:17.754Z,73.70
2019-05-07T03:02:23.952Z,74.50
2019-05-07T03:03:25.496Z,77.70
2019-05-07T03:04:33.098Z,76.40
2019-05-07T03:05:35.180Z,76.10
2019-05-07T03:06:38.240Z,76.80
2019-05-07T03:07:42.775Z,74.90
2019-05-07T03:08:45.950Z,76.80
2019-05-07T03:09:48.940Z,76.20
2019-05-07T03:10:52.808Z,74.30
2019-05-07T03:11:56.105Z,75.20
2019-05-07T03:12:59.342Z,74.00
2019-05-07T03:14:03.199Z,74.40
2019-05-07T03:15:06.434Z,77.90
2019-05-07T03:16:09.432Z,79.20
2019-05-07T03:17:13.399Z,75.40
2019-05-07T03:18:18.964Z,74.80
2019-05-07T03:19:23.897Z,72.60
2019-05-07T03:20:33.388Z,74.70
2019-05-07T03:21:55.804Z,74.00
2019-05-07T03:22:59.331Z,76.50
2019-05-07T03:24:16.352Z,79.20
2019-05-07T03:25:23.276Z,76.10
2019-05-07T03:26:29.716Z,74.00
2019-05-07T03:27:34.225Z,74.40
2019-05-07T03:28:53.776Z,73.40
2019-05-07T03:30:16.750Z,75.60
2019-05-07T03:31:25.999Z,74.90
2019-05-07T03:32:37.971Z,76.20
2019-05-07T03:33:47.953Z,77.20
2019-05-07T03:35:06.589Z,73.30
2019-05-07T03:36:08.035Z,74.30
2019-05-07T03:37:13.522Z,75.70
2019-05-07T03:38:16.689Z,77.70
2019-05-07T03:39:20.243Z,78.90
2019-05-07T03:40:23.257Z,75.00
2019-05-07T03:41:26.592Z,75.40
2019-05-07T03:42:33.598Z,73.30
2019-05-07T03:43:36.259Z,78.20
2019-05-07T03:44:53.786Z,76.70
2019-05-07T03:46:08.234Z,74.80
2019-05-07T03:47:19.556Z,73.10
2019-05-07T03:48:24.245Z,75.20
2019-05-07T03:49:27.772Z,74.80
2019-05-07T03:50:33.644Z,75.00
2019-05-07T03:51:35.413Z,73.20
2019-05-07T03:52:38.598Z,73.90
2019-05-07T03:53:43.647Z,69.20
2019-05-07T03:54:46.227Z,72.90
2019-05-07T03:55:49.220Z,73.20
2019-05-07T03:56:52.963Z,72.90
2019-05-07T03:57:56.084Z,72.80
2019-05-07T03:58:58.979Z,73.50
2019-05-07T04:00:04.216Z,73.10
2019-05-07T04:01:06.734Z,74.20
2019-05-07T04:02:09.666Z,72.60
2019-05-07T04:03:13.988Z,72.70
2019-05-07T04:04:17.338Z,74.10
2019-05-07T04:05:22.926Z,73.40
2019-05-07T04:06:25.031Z,72.60
2019-05-07T04:07:28.074Z,71.60
2019-05-07T04:08:33.387Z,70.60
2019-05-07T04:09:35.839Z,73.20
2019-05-07T04:10:39.083Z,74.80
2019-05-07T04:11:43.309Z,72.20
2019-05-07T04:12:46.769Z,74.60
2019-05-07T04:13:49.731Z,72.60
2019-05-07T04:14:53.467Z,76.50
2019-05-07T04:15:56.617Z,70.50
2019-05-07T04:17:14.420Z,74.20
2019-05-07T04:18:04.577Z,73.20
2019-05-07T04:19:07.522Z,75.20
2019-05-07T04:20:13.541Z,75.70
2019-05-07T04:21:15.352Z,75.40
2019-05-07T04:22:19.177Z,72.90
2019-05-07T04:23:23.325Z,75.60
2019-05-07T04:24:35.716Z,75.00
2019-05-07T04:26:06.117Z,73.10
2019-05-07T04:27:23.847Z,75.40
2019-05-07T04:28:49.211Z,75.00
2019-05-07T04:29:53.219Z,73.70
2019-05-07T04:30:56.698Z,75.40
2019-05-07T04:32:03.274Z,71.80
2019-05-07T04:33:06.538Z,77.00
2019-05-07T04:34:28.914Z,77.30
2019-05-07T04:35:43.637Z,76.00
2019-05-07T04:36:48.458Z,74.30
2019-05-07T04:37:53.379Z,73.10
2019-05-07T04:38:56.044Z,76.50
2019-05-07T04:40:02.893Z,75.10
2019-05-07T04:41:04.441Z,74.60
2019-05-07T04:42:07.413Z,72.00
2019-05-07T04:43:13.202Z,76.90
2019-05-07T04:44:15.269Z,77.30
2019-05-07T04:45:18.296Z,76.40
2019-05-07T04:46:23.610Z,72.70
2019-05-07T04:47:38.583Z,75.80
2019-05-07T04:48:34.046Z,76.20
2019-05-07T04:49:36.105Z,73.40
2019-05-07T04:50:46.683Z,73.60
2019-05-07T04:52:11.319Z,71.90
2019-05-07T04:53:13.869Z,71.80
2019-05-07T04:54:16.922Z,71.20
2019-05-07T04:55:22.749Z,73.90
2019-05-07T04:56:24.586Z,73.80
2019-05-07T04:57:27.537Z,74.20
2019-05-07T04:58:33.175Z,73.50
2019-05-07T04:59:35.183Z,73.00
2019-05-07T05:00:38.233Z,72.60
2019-05-07T05:01:46.666Z,72.40
2019-05-07T05:03:12.841Z,75.00
2019-05-07T05:04:25.467Z,75.90
2019-05-07T05:05:23.529Z,75.80
2019-05-07T05:06:29.768Z,75.50
2019-05-07T05:07:33.489Z,75.00
2019-05-07T05:08:36.575Z,74.70
2019-05-07T05:09:42.461Z,74.00
2019-05-07T05:10:44.514Z,73.50
2019-05-07T05:11:47.426Z,75.60
2019-05-07T05:12:53.382Z,74.10
2019-05-07T05:13:55.465Z,73.30
2019-05-07T05:14:58.377Z,73.40
2019-05-07T05:16:22.431Z,71.60
2019-05-07T05:17:27.221Z,72.50
2019-05-07T05:18:30.132Z,75.10
2019-05-07T05:19:33.061Z,73.70
2019-05-07T05:21:08.335Z,71.80
2019-05-07T05:22:32.182Z,71.50
2019-05-07T05:23:58.032Z,78.10
2019-05-07T05:25:12.159Z,71.70
2019-05-07T05:26:14.879Z,77.50
2019-05-07T05:27:17.776Z,76.80
2019-05-07T05:28:24.873Z,73.30
2019-05-07T05:29:27.866Z,70.20
2019-05-07T05:30:42.739Z,71.60
2019-05-07T05:31:46.105Z,74.30
2019-05-07T05:32:49.038Z,77.50
2019-05-07T05:33:52.617Z,77.40
2019-05-07T05:34:57.548Z,76.20
2019-05-07T05:36:02.909Z,73.50
2019-05-07T05:37:05.690Z,75.00
2019-05-07T05:38:08.645Z,76.50
2019-05-07T05:39:13.139Z,75.00
2019-05-07T05:40:17.184Z,73.20
2019-05-07T05:41:22.479Z,72.40
2019-05-07T05:42:34.946Z,72.50
2019-05-07T05:44:15.053Z,73.10
2019-05-07T05:45:33.533Z,74.40
2019-05-07T05:46:36.604Z,72.20
2019-05-07T05:47:42.884Z,74.40
2019-05-07T05:48:44.515Z,69.80
2019-05-07T05:49:47.435Z,70.90
2019-05-07T05:51:05.770Z,70.00
2019-05-07T05:52:36.984Z,72.80
2019-05-07T05:53:54.049Z,71.10
2019-05-07T05:55:03.208Z,75.80
2019-05-07T05:56:12.217Z,74.00
2019-05-07T05:57:34.274Z,72.40
2019-05-07T05:58:52.698Z,73.70
2019-05-07T06:00:22.121Z,75.20
2019-05-07T06:01:47.297Z,74.20
2019-05-07T06:03:08.149Z,73.40
2019-05-07T06:04:19.102Z,72.60
2019-05-07T06:05:47.169Z,74.80
2019-05-07T06:07:10.489Z,75.10
2019-05-07T06:08:26.942Z,73.50
2019-05-07T06:09:49.352Z,73.00
2019-05-07T06:11:21.850Z,73.20
2019-05-07T06:12:52.253Z,72.00
2019-05-07T06:14:02.269Z,74.50
2019-05-07T06:15:25.561Z,71.80
2019-05-07T06:16:32.928Z,76.00
2019-05-07T06:17:47.185Z,70.10
2019-05-07T06:19:22.582Z,72.80
2019-05-07T06:20:43.696Z,72.80
2019-05-07T06:22:01.998Z,74.60
2019-05-07T06:23:22.303Z,76.70
2019-05-07T06:24:52.152Z,74.80
2019-05-07T06:25:54.992Z,72.80
2019-05-07T06:26:57.933Z,75.50
2019-05-07T06:28:01.979Z,71.50
2019-05-07T06:29:04.949Z,71.10
2019-05-07T06:30:08.312Z,70.10
2019-05-07T06:31:12.694Z,73.10
2019-05-07T06:32:16.842Z,70.70
2019-05-07T06:33:20.057Z,69.70
2019-05-07T06:34:23.045Z,69.60
2019-05-07T06:35:26.005Z,67.60
2019-05-07T06:36:32.824Z,69.20
2019-05-07T06:37:35.653Z,70.40
2019-05-07T06:38:45.016Z,69.10
2019-05-07T06:39:56.037Z,70.90
2019-05-07T06:41:15.650Z,70.00
2019-05-07T06:42:42.666Z,68.30
2019-05-07T06:43:49.305Z,71.00
2019-05-07T06:45:12.337Z,71.30
2019-05-07T06:46:15.553Z,68.20
2019-05-07T06:47:18.565Z,69.40
2019-05-07T06:48:34.691Z,66.90
2019-05-07T06:49:27.281Z,69.10
2019-05-07T06:50:32.542Z,67.40
2019-05-07T06:51:35.039Z,68.60
2019-05-07T06:52:37.997Z,70.40
2019-05-07T06:53:42.274Z,68.70
2019-05-07T06:54:45.544Z,69.10
2019-05-07T06:55:49.501Z,69.60
2019-05-07T06:56:52.549Z,67.80
2019-05-07T06:57:55.673Z,66.60
2019-05-07T06:59:18.155Z,71.60
2019-05-07T07:00:39.097Z,70.50
2019-05-07T07:02:02.374Z,71.80
2019-05-07T07:03:25.635Z,70.80
2019-05-07T07:04:56.932Z,66.00
2019-05-07T07:06:20.243Z,70.50
2019-05-07T07:07:37.377Z,69.40
2019-05-07T07:09:02.901Z,64.70
2019-05-07T07:10:32.752Z,67.40
2019-05-07T07:11:42.396Z,65.80
2019-05-07T07:12:46.445Z,72.20
2019-05-07T07:13:49.369Z,69.50
2019-05-07T07:14:52.493Z,68.90
2019-05-07T07:15:55.422Z,66.80
2019-05-07T07:16:58.464Z,68.10
2019-05-07T07:18:03.169Z,67.80
2019-05-07T07:19:06.449Z,68.80
2019-05-07T07:20:12.712Z,66.60
2019-05-07T07:21:15.970Z,68.20
2019-05-07T07:22:18.922Z,69.70
2019-05-07T07:23:22.674Z,67.80
2019-05-07T07:24:25.918Z,69.80
2019-05-07T07:25:28.835Z,70.00
2019-05-07T07:26:39.417Z,69.70
2019-05-07T07:27:42.950Z,67.20
2019-05-07T07:28:45.992Z,69.40
2019-05-07T07:29:55.568Z,67.60
2019-05-07T07:31:13.244Z,66.00
2019-05-07T07:32:23.004Z,67.10
2019-05-07T07:33:28.101Z,69.20
2019-05-07T07:34:34.429Z,64.40
2019-05-07T07:35:37.440Z,67.00
2019-05-07T07:36:47.397Z,63.30
2019-05-07T07:37:50.328Z,66.40
2019-05-07T07:38:53.283Z,64.20
2019-05-07T07:40:32.565Z,62.00
2019-05-07T07:41:38.481Z,60.30
2019-05-07T07:42:42.722Z,64.80
2019-05-07T07:43:45.739Z,64.30
2019-05-07T07:44:51.911Z,61.20
2019-05-07T07:45:54.990Z,63.50
2019-05-07T07:46:58.099Z,64.50
2019-05-07T07:48:02.307Z,64.10
2019-05-07T07:49:10.992Z,64.70
2019-05-07T07:50:12.944Z,65.80
2019-05-07T07:51:16.034Z,64.30
2019-05-07T07:52:19.044Z,64.40
2019-05-07T07:53:22.675Z,62.40
2019-05-07T07:54:26.085Z,63.10
2019-05-07T07:55:37.542Z,63.30
2019-05-07T07:57:12.637Z,64.90
2019-05-07T07:58:31.566Z,64.60
2019-05-07T07:59:52.850Z,62.50
2019-05-07T08:01:02.968Z,63.20
2019-05-07T08:02:32.248Z,63.10
2019-05-07T08:03:35.419Z,68.30
2019-05-07T08:04:38.413Z,66.40
2019-05-07T08:05:42.817Z,67.50
2019-05-07T08:06:47.685Z,60.50
2019-05-07T08:07:52.808Z,59.40
2019-05-07T08:08:55.366Z,60.10
2019-05-07T08:09:58.429Z,60.10
2019-05-07T08:11:02.441Z,62.40
2019-05-07T08:12:06.271Z,65.40
2019-05-07T08:13:09.288Z,62.80
2019-05-07T08:14:12.775Z,58.60
2019-05-07T08:15:20.882Z,59.40
2019-05-07T08:16:22.266Z,61.30
2019-05-07T08:17:25.316Z,62.80
2019-05-07T08:18:28.472Z,62.70
2019-05-07T08:19:32.771Z,59.70
2019-05-07T08:20:36.201Z,59.80
2019-05-07T08:21:39.128Z,59.10
2019-05-07T08:22:42.390Z,59.40
2019-05-07T08:23:45.915Z,60.90
2019-05-07T08:24:49.249Z,65.90
2019-05-07T08:25:52.711Z,64.50
2019-05-07T08:26:55.949Z,63.30
2019-05-07T08:27:58.978Z,61.40
2019-05-07T08:29:03.012Z,63.60
2019-05-07T08:30:07.409Z,60.30
2019-05-07T08:31:32.900Z,59.40
2019-05-07T08:32:58.906Z,62.20
2019-05-07T08:34:14.251Z,67.90
2019-05-07T08:35:36.791Z,67.70
2019-05-07T08:36:42.015Z,63.90
2019-05-07T08:37:45.221Z,60.40
2019-05-07T08:38:57.465Z,62.20
2019-05-07T08:40:02.921Z,60.30
2019-05-07T08:41:05.424Z,59.70
2019-05-07T08:42:09.138Z,59.60
2019-05-07T08:43:12.609Z,62.30
2019-05-07T08:44:18.097Z,58.40
2019-05-07T08:45:38.859Z,62.70
2019-05-07T08:46:59.804Z,59.60
2019-05-07T08:48:05.761Z,63.10
2019-05-07T08:49:09.382Z,62.20
2019-05-07T08:50:12.503Z,60.40
2019-05-07T08:51:15.456Z,56.80
2019-05-07T08:52:18.365Z,58.00
2019-05-07T08:53:22.516Z,59.40
2019-05-07T08:54:25.450Z,59.60
2019-05-07T08:55:29.118Z,60.80
2019-05-07T08:56:32.581Z,59.90
2019-05-07T08:57:35.777Z,60.00
2019-05-07T08:58:39.198Z,59.70
2019-05-07T08:59:57.235Z,59.90
2019-05-07T09:00:47.461Z,57.70
2019-05-07T09:01:51.979Z,60.90
2019-05-07T09:02:55.056Z,60.20
2019-05-07T09:03:58.410Z,58.70
2019-05-07T09:05:02.929Z,60.30
2019-05-07T09:06:06.156Z,57.50
2019-05-07T09:07:10.258Z,59.60
2019-05-07T09:08:13.905Z,59.40
2019-05-07T09:09:16.880Z,59.80
2019-05-07T09:10:21.709Z,59.50
2019-05-07T09:11:24.654Z,58.10
2019-05-07T09:12:28.282Z,58.20
2019-05-07T09:13:33.291Z,56.80
2019-05-07T09:14:37.645Z,56.80
2019-05-07T09:15:42.419Z,58.80
2019-05-07T09:16:46.740Z,61.50
2019-05-07T09:17:52.538Z,59.20
2019-05-07T09:18:55.160Z,61.30
2019-05-07T09:19:58.295Z,61.10
2019-05-07T09:21:02.206Z,61.00
2019-05-07T09:22:05.220Z,56.50
2019-05-07T09:23:08.521Z,59.40
2019-05-07T09:24:12.228Z,57.60
2019-05-07T09:25:15.581Z,57.10
2019-05-07T09:26:22.146Z,61.40
2019-05-07T09:27:44.454Z,58.50
2019-05-07T09:29:02.526Z,60.20
2019-05-07T09:30:17.826Z,64.50
2019-05-07T09:31:27.163Z,59.70
2019-05-07T09:32:52.157Z,59.10
2019-05-07T09:33:55.685Z,56.70
2019-05-07T09:35:02.149Z,58.80
2019-05-07T09:36:07.277Z,60.10
2019-05-07T09:37:12.587Z,55.30
2019-05-07T09:38:15.553Z,59.10
2019-05-07T09:39:18.559Z,59.10
2019-05-07T09:40:21.798Z,58.40
2019-05-07T09:41:27.344Z,57.40
2019-05-07T09:42:30.268Z,60.80
2019-05-07T09:43:33.286Z,59.50
2019-05-07T09:44:36.601Z,58.60
2019-05-07T09:45:41.890Z,57.30
2019-05-07T09:46:46.649Z,54.80
2019-05-07T09:47:49.223Z,55.90
2019-05-07T09:48:52.386Z,56.10
2019-05-07T09:50:04.548Z,57.50
2019-05-07T09:51:02.203Z,59.00
2019-05-07T09:52:06.083Z,55.50
2019-05-07T09:53:09.030Z,58.50
2019-05-07T09:54:12.689Z,58.40
2019-05-07T09:55:18.360Z,59.80
2019-05-07T09:56:22.905Z,60.40
2019-05-07T09:57:31.222Z,59.50
2019-05-07T09:58:36.625Z,58.90
2019-05-07T09:59:35.464Z,58.50
2019-05-07T10:00:38.721Z,58.00
2019-05-07T10:01:41.741Z,57.50
2019-05-07T10:02:44.820Z,59.80
2019-05-07T10:03:47.978Z,58.80
2019-05-07T10:04:52.636Z,59.60
2019-05-07T10:05:55.772Z,59.40
2019-05-07T10:06:58.879Z,59.30
2019-05-07T10:08:02.047Z,58.40
2019-05-07T10:09:06.027Z,60.50
2019-05-07T10:10:11.782Z,60.50
2019-05-07T10:11:22.555Z,57.70
2019-05-07T10:12:47.473Z,56.00
2019-05-07T10:13:55.593Z,59.10
2019-05-07T10:14:58.572Z,56.70
2019-05-07T10:16:03.838Z,56.90
2019-05-07T10:17:17.413Z,57.20
2019-05-07T10:18:22.702Z,57.00
2019-05-07T10:19:25.537Z,56.50
2019-05-07T10:20:32.543Z,56.30
2019-05-07T10:21:34.310Z,57.70
2019-05-07T10:22:37.370Z,56.90
2019-05-07T10:23:41.717Z,56.00
2019-05-07T10:24:44.637Z,56.30
2019-05-07T10:25:52.223Z,55.50
2019-05-07T10:26:55.711Z,53.40
2019-05-07T10:27:58.906Z,56.00
2019-05-07T10:29:02.240Z,55.60
2019-05-07T10:30:05.346Z,53.90
2019-05-07T10:31:09.253Z,55.60
2019-05-07T10:32:12.828Z,55.60
2019-05-07T10:33:16.980Z,56.40
2019-05-07T10:34:22.696Z,54.60
2019-05-07T10:35:25.263Z,52.30
2019-05-07T10:36:28.289Z,54.50
2019-05-07T10:37:31.844Z,55.20
2019-05-07T10:38:35.015Z,55.90
2019-05-07T10:39:37.936Z,52.90
2019-05-07T10:40:40.986Z,54.20
2019-05-07T10:41:44.207Z,54.30
2019-05-07T10:42:48.401Z,55.20
2019-05-07T10:43:51.986Z,57.50
2019-05-07T10:45:03.369Z,56.80
2019-05-07T10:46:23.761Z,53.90
2019-05-07T10:47:41.842Z,51.90
2019-05-07T10:49:13.069Z,55.50
2019-05-07T10:50:35.544Z,54.60
2019-05-07T10:51:27.404Z,51.30
2019-05-07T10:52:31.902Z,55.30
2019-05-07T10:53:34.999Z,55.50
2019-05-07T10:54:37.955Z,56.70
2019-05-07T10:55:42.231Z,54.80
2019-05-07T10:56:47.761Z,54.90
2019-05-07T10:57:52.752Z,55.50
2019-05-07T10:58:55.736Z,54.70
2019-05-07T10:59:59.030Z,56.70
2019-05-07T11:01:02.996Z,56.60
2019-05-07T11:02:12.617Z,57.00
2019-05-07T11:03:15.833Z,57.20
2019-05-07T11:04:18.757Z,55.30
2019-05-07T11:05:22.056Z,54.50
2019-05-07T11:06:25.080Z,54.40
2019-05-07T11:07:28.100Z,53.10
2019-05-07T11:08:32.981Z,55.30
2019-05-07T11:09:35.874Z,54.70
2019-05-07T11:10:39.185Z,55.60
2019-05-07T11:11:42.382Z,55.00
2019-05-07T11:12:45.369Z,54.20
2019-05-07T11:13:48.859Z,51.90
2019-05-07T11:14:51.761Z,53.50
2019-05-07T11:16:02.392Z,55.90
2019-05-07T11:17:22.313Z,55.50
2019-05-07T11:18:29.900Z,53.00
2019-05-07T11:19:32.878Z,52.00
2019-05-07T11:20:46.576Z,55.40
2019-05-07T11:21:41.896Z,53.20
2019-05-07T11:22:45.174Z,52.70
2019-05-07T11:23:48.219Z,50.70
2019-05-07T11:24:52.234Z,52.40
2019-05-07T11:25:55.254Z,51.30
2019-05-07T11:26:59.511Z,50.20
2019-05-07T11:28:02.942Z,51.90
2019-05-07T11:29:05.862Z,52.00
2019-05-07T11:30:11.801Z,53.10
2019-05-07T11:31:14.653Z,53.50
2019-05-07T11:32:17.603Z,49.90
2019-05-07T11:33:22.039Z,50.60
2019-05-07T11:34:25.292Z,53.00
2019-05-07T11:35:29.040Z,52.10
2019-05-07T11:36:34.178Z,53.20
2019-05-07T11:37:36.897Z,50.10
2019-05-07T11:38:41.842Z,52.80
2019-05-07T11:39:44.720Z,54.70
2019-05-07T11:40:47.654Z,52.50
2019-05-07T11:42:25.092Z,52.80
2019-05-07T11:44:05.599Z,52.20
2019-05-07T11:45:12.315Z,53.90
2019-05-07T11:46:32.785Z,57.50
2019-05-07T11:47:35.776Z,56.60
2019-05-07T11:48:45.186Z,53.40
2019-05-07T11:50:07.854Z,52.20
2019-05-07T11:51:33.578Z,50.00
2019-05-07T11:52:42.565Z,49.40
2019-05-07T11:54:03.311Z,52.00
2019-05-07T11:55:06.253Z,51.50
2019-05-07T11:56:09.410Z,53.50
2019-05-07T11:57:12.421Z,50.50
2019-05-07T11:58:15.374Z,50.80
2019-05-07T11:59:18.433Z,50.30
2019-05-07T12:00:29.645Z,51.80
2019-05-07T12:01:43.980Z,53.20
2019-05-07T12:02:37.662Z,55.80
2019-05-07T12:03:42.819Z,53.10
2019-05-07T12:04:46.677Z,52.10
2019-05-07T12:05:49.958Z,53.80
2019-05-07T12:06:52.959Z,52.60
2019-05-07T12:07:55.869Z,53.00
2019-05-07T12:08:58.799Z,53.60
2019-05-07T12:10:04.885Z,54.50
2019-05-07T12:11:07.182Z,54.50
2019-05-07T12:12:10.119Z,53.90
2019-05-07T12:13:13.101Z,51.70
2019-05-07T12:14:27.920Z,50.40
2019-05-07T12:15:21.714Z,53.70
2019-05-07T12:16:24.748Z,53.90
2019-05-07T12:17:27.706Z,54.10
2019-05-07T12:18:31.922Z,52.40
2019-05-07T12:19:35.380Z,50.50
2019-05-07T12:20:38.457Z,52.70
2019-05-07T12:21:43.985Z,51.30
2019-05-07T12:22:46.967Z,51.10
2019-05-07T12:23:49.907Z,53.20
2019-05-07T12:24:52.889Z,53.00
2019-05-07T12:25:55.817Z,54.00
2019-05-07T12:26:58.754Z,54.00
2019-05-07T12:28:02.402Z,53.80
2019-05-07T12:29:05.660Z,52.40
2019-05-07T12:30:12.186Z,53.20
2019-05-07T12:31:33.605Z,51.20
2019-05-07T12:33:14.058Z,52.90
2019-05-07T12:34:23.796Z,53.10
2019-05-07T12:35:26.735Z,52.50
2019-05-07T12:36:31.888Z,53.30
2019-05-07T12:37:34.432Z,53.10
2019-05-07T12:38:37.441Z,51.30
2019-05-07T12:39:42.312Z,52.00
2019-05-07T12:40:46.482Z,49.60
2019-05-07T12:41:49.454Z,48.20
2019-05-07T12:42:52.597Z,46.20
2019-05-07T12:43:55.533Z,48.60
2019-05-07T12:44:58.918Z,49.60
2019-05-07T12:46:02.844Z,49.30
2019-05-07T12:47:05.914Z,48.10
2019-05-07T12:48:11.365Z,48.70
2019-05-07T12:49:14.415Z,49.80
2019-05-07T12:50:17.419Z,46.00
2019-05-07T12:51:31.628Z,46.30
2019-05-07T12:52:44.560Z,46.60
2019-05-07T12:53:52.453Z,47.70
2019-05-07T12:55:16.213Z,46.30
2019-05-07T12:56:19.178Z,45.60
2019-05-07T12:57:22.133Z,48.90
2019-05-07T12:58:25.238Z,49.00
2019-05-07T12:59:28.233Z,48.80
2019-05-07T13:01:01.329Z,50.30
2019-05-07T13:02:37.962Z,50.60
2019-05-07T13:03:43.908Z,50.20
2019-05-07T13:04:46.858Z,50.80
2019-05-07T13:05:52.093Z,51.60
2019-05-07T13:07:05.716Z,46.70
2019-05-07T13:08:08.613Z,45.20
2019-05-07T13:09:12.617Z,45.10
2019-05-07T13:10:16.586Z,46.90
2019-05-07T13:11:21.731Z,44.50
2019-05-07T13:12:25.043Z,44.50
2019-05-07T13:13:28.033Z,43.70
2019-05-07T13:14:31.019Z,42.80
2019-05-07T13:15:34.929Z,43.90
2019-05-07T13:16:38.200Z,41.90
2019-05-07T13:17:41.709Z,43.10
2019-05-07T13:18:44.753Z,43.60
2019-05-07T13:19:48.189Z,41.50
2019-05-07T13:20:51.908Z,43.10
2019-05-07T13:21:55.039Z,43.50
2019-05-07T13:22:58.240Z,43.40
2019-05-07T13:24:02.769Z,44.70
2019-05-07T13:25:05.928Z,45.10
2019-05-07T13:26:08.881Z,47.50
2019-05-07T13:27:11.796Z,48.00
2019-05-07T13:28:15.197Z,45.70
2019-05-07T13:29:18.211Z,45.80
2019-05-07T13:30:22.224Z,45.30
2019-05-07T13:31:27.597Z,46.80
2019-05-07T13:32:32.000Z,47.50
2019-05-07T13:33:35.802Z,45.10
2019-05-07T13:34:38.837Z,45.10
2019-05-07T13:35:44.247Z,47.10
2019-05-07T13:36:54.390Z,47.70
2019-05-07T13:38:14.833Z,46.00
2019-05-07T13:39:23.510Z,47.40
2019-05-07T13:40:34.227Z,46.10
2019-05-07T13:41:56.789Z,44.50
2019-05-07T13:43:06.381Z,45.60
2019-05-07T13:44:24.746Z,48.90
2019-05-07T13:45:44.346Z,44.00
2019-05-07T13:46:47.623Z,42.10
2019-05-07T13:47:56.861Z,42.80
2019-05-07T13:49:01.944Z,44.90
2019-05-07T13:50:05.903Z,46.10
2019-05-07T13:51:09.101Z,43.30
2019-05-07T13:52:12.427Z,44.20
2019-05-07T13:53:15.994Z,45.20
2019-05-07T13:54:18.946Z,46.50
2019-05-07T13:55:22.196Z,44.90
2019-05-07T13:56:25.102Z,44.90
2019-05-07T13:57:28.011Z,44.00
2019-05-07T13:58:32.924Z,43.10
2019-05-07T13:59:36.076Z,44.30
2019-05-07T14:00:47.498Z,45.10
2019-05-07T14:02:00.163Z,41.10
2019-05-07T14:03:03.562Z,43.10
2019-05-07T14:04:06.521Z,42.80
2019-05-07T14:05:09.618Z,43.50
2019-05-07T14:06:16.635Z,44.90
2019-05-07T14:07:21.742Z,42.80
2019-05-07T14:08:26.891Z,43.30
2019-05-07T14:09:29.913Z,41.70
2019-05-07T14:10:33.820Z,40.30
2019-05-07T14:11:37.359Z,41.70
2019-05-07T14:12:42.539Z,41.80
2019-05-07T14:13:46.644Z,42.20
2019-05-07T14:14:49.808Z,44.10
2019-05-07T14:16:06.693Z,41.60
2019-05-07T14:17:09.637Z,41.50
2019-05-07T14:18:12.851Z,41.30
2019-05-07T14:19:15.993Z,43.90
2019-05-07T14:20:19.198Z,42.40
2019-05-07T14:21:22.250Z,40.70
2019-05-07T14:22:28.934Z,43.40
2019-05-07T14:23:32.516Z,41.80
2019-05-07T14:24:36.026Z,41.30